Meteorología y climatología de Navarra
Datos de la estación - Meteo Navarra

Estación de Goizueta GN

Altitud 142 m.


Datos desde el 09/11/2018 hasta el 10/11/2018 en horario solar
Los datos son PROVISIONALES

Anterior Página 1 de 1 Siguiente Descargar: Formato para Excel 2000 o superior   Formato csv   Formato para OpenOffice Calc
Fecha Temperatura Humedad relativa Radiación global Insolación Precipitación Velocidad viento 10 m Velocidad viento 10 m Dirección viento 10 m
ºC % W/m² s l/m² m/s km/h º
09/11/2018 0:00 10.0 99 - - - - 0.0 - - - - - -
09/11/2018 0:10 10.0 99 - - - - 0.0 - - - - - -
09/11/2018 0:20 9.9 99 - - - - 0.0 - - - - - -
09/11/2018 0:30 9.9 99 - - - - 0.0 - - - - - -
09/11/2018 0:40 9.9 99 - - - - 0.0 - - - - - -
09/11/2018 0:50 9.8 100 - - - - 0.0 - - - - - -
09/11/2018 1:00 9.8 100 - - - - 0.0 - - - - - -
09/11/2018 1:10 9.8 100 - - - - 0.0 - - - - - -
09/11/2018 1:20 9.8 100 - - - - 0.1 - - - - - -
09/11/2018 1:30 9.8 100 - - - - 0.0 - - - - - -
09/11/2018 1:40 9.8 100 - - - - 0.0 - - - - - -
09/11/2018 1:50 9.8 100 - - - - 0.0 - - - - - -
09/11/2018 2:00 9.9 100 - - - - 0.0 - - - - - -
09/11/2018 2:10 9.8 100 - - - - 0.1 - - - - - -
09/11/2018 2:20 9.8 100 - - - - 0.1 - - - - - -
09/11/2018 2:30 9.8 100 - - - - 0.1 - - - - - -
09/11/2018 2:40 9.9 100 - - - - 0.0 - - - - - -
09/11/2018 2:50 9.8 100 - - - - 0.2 - - - - - -
09/11/2018 3:00 9.8 100 - - - - 0.4 - - - - - -
09/11/2018 3:10 9.8 100 - - - - 0.1 - - - - - -
09/11/2018 3:20 9.9 100 - - - - 0.1 - - - - - -
09/11/2018 3:30 9.8 99 - - - - 0.3 - - - - - -
09/11/2018 3:40 9.8 99 - - - - 0.2 - - - - - -
09/11/2018 3:50 9.7 99 - - - - 0.3 - - - - - -
09/11/2018 4:00 9.7 100 - - - - 0.2 - - - - - -
09/11/2018 4:10 9.6 100 - - - - 0.1 - - - - - -
09/11/2018 4:20 9.8 99 - - - - 0.1 - - - - - -
09/11/2018 4:30 10.2 95 - - - - 0.0 - - - - - -
09/11/2018 4:40 9.9 97 - - - - 0.1 - - - - - -
09/11/2018 4:50 9.8 98 - - - - 0.0 - - - - - -
09/11/2018 5:00 9.8 99 - - - - 0.1 - - - - - -
09/11/2018 5:10 9.8 99 - - - - 0.0 - - - - - -
09/11/2018 5:20 9.7 100 - - - - 0.0 - - - - - -
09/11/2018 5:30 9.7 100 - - - - 0.0 - - - - - -
09/11/2018 5:40 9.8 100 - - - - 0.0 - - - - - -
09/11/2018 5:50 9.7 100 - - - - 0.0 - - - - - -
09/11/2018 6:00 9.6 100 - - - - 0.0 - - - - - -
09/11/2018 6:10 9.6 100 - - - - 0.0 - - - - - -
09/11/2018 6:20 9.6 100 - - - - 0.0 - - - - - -
09/11/2018 6:30 9.5 100 - - - - 0.0 - - - - - -
09/11/2018 6:40 9.5 100 - - - - 0.0 - - - - - -
09/11/2018 6:50 9.5 100 - - - - 0.0 - - - - - -
09/11/2018 7:00 9.5 100 - - - - 0.0 - - - - - -
09/11/2018 7:10 9.5 100 - - - - 0.0 - - - - - -
09/11/2018 7:20 9.5 100 - - - - 0.0 - - - - - -
09/11/2018 7:30 9.5 100 - - - - 0.0 - - - - - -
09/11/2018 7:40 9.6 100 - - - - 0.0 - - - - - -
09/11/2018 7:50 9.6 100 - - - - 0.0 - - - - - -
09/11/2018 8:00 9.8 100 - - - - 0.0 - - - - - -
09/11/2018 8:10 9.9 100 - - - - 0.0 - - - - - -
09/11/2018 8:20 9.9 100 - - - - 0.0 - - - - - -
09/11/2018 8:30 9.9 100 - - - - 0.0 - - - - - -
09/11/2018 8:40 10.0 100 - - - - 0.0 - - - - - -
09/11/2018 8:50 10.2 99 - - - - 0.0 - - - - - -
09/11/2018 9:00 10.4 99 - - - - 0.0 - - - - - -
09/11/2018 9:10 10.4 99 - - - - 0.0 - - - - - -
09/11/2018 9:20 10.5 98 - - - - 0.0 - - - - - -
09/11/2018 9:30 10.7 97 - - - - 0.0 - - - - - -
09/11/2018 9:40 11.0 95 - - - - 0.0 - - - - - -
09/11/2018 9:50 11.3 93 - - - - 0.0 - - - - - -
09/11/2018 10:00 11.7 91 - - - - 0.0 - - - - - -
09/11/2018 10:10 11.8 92 - - - - 0.0 - - - - - -
09/11/2018 10:20 11.8 91 - - - - 0.0 - - - - - -
09/11/2018 10:30 12.2 87 - - - - 0.0 - - - - - -
09/11/2018 10:40 12.9 77 - - - - 0.0 - - - - - -
09/11/2018 10:50 13.1 75 - - - - 0.0 - - - - - -
09/11/2018 11:00 12.9 75 - - - - 0.0 - - - - - -
09/11/2018 11:10 13.1 74 - - - - 0.0 - - - - - -
09/11/2018 11:20 12.9 75 - - - - 0.0 - - - - - -
09/11/2018 11:30 13.2 72 - - - - 0.0 - - - - - -
09/11/2018 11:40 13.9 68 - - - - 0.0 - - - - - -
09/11/2018 11:50 14.2 64 - - - - 0.0 - - - - - -
09/11/2018 12:00 14.4 65 - - - - 0.0 - - - - - -
09/11/2018 12:10 14.8 66 - - - - 0.0 - - - - - -
09/11/2018 12:20 14.6 61 - - - - 0.0 - - - - - -
09/11/2018 12:30 14.7 61 - - - - 0.0 - - - - - -
09/11/2018 12:40 15.3 59 - - - - 0.0 - - - - - -
09/11/2018 12:50 15.8 57 - - - - 0.0 - - - - - -
09/11/2018 13:00 15.7 57 - - - - 0.0 - - - - - -
09/11/2018 13:10 15.6 56 - - - - 0.0 - - - - - -
09/11/2018 13:20 15.4 60 - - - - 0.0 - - - - - -
09/11/2018 13:30 15.7 56 - - - - 0.0 - - - - - -
09/11/2018 13:40 16.2 55 - - - - 0.0 - - - - - -
09/11/2018 13:50 16.3 56 - - - - 0.0 - - - - - -
09/11/2018 14:00 15.8 58 - - - - 0.0 - - - - - -
09/11/2018 14:10 16.0 59 - - - - 0.0 - - - - - -
09/11/2018 14:20 16.8 54 - - - - 0.0 - - - - - -
09/11/2018 14:30 16.8 50 - - - - 0.0 - - - - - -
09/11/2018 14:40 16.5 52 - - - - 0.0 - - - - - -
09/11/2018 14:50 15.2 56 - - - - 0.0 - - - - - -
09/11/2018 15:00 15.0 53 - - - - 0.0 - - - - - -
09/11/2018 15:10 14.8 51 - - - - 0.0 - - - - - -
09/11/2018 15:20 14.5 52 - - - - 0.0 - - - - - -
09/11/2018 15:30 13.6 60 - - - - 0.0 - - - - - -
09/11/2018 15:40 12.4 70 - - - - 0.0 - - - - - -
09/11/2018 15:50 12.1 73 - - - - 0.0 - - - - - -
09/11/2018 16:00 11.4 77 - - - - 0.0 - - - - - -
09/11/2018 16:10 11.5 75 - - - - 0.0 - - - - - -
09/11/2018 16:20 11.5 76 - - - - 0.0 - - - - - -
09/11/2018 16:30 11.1 82 - - - - 0.0 - - - - - -
09/11/2018 16:40 10.5 86 - - - - 0.0 - - - - - -
09/11/2018 16:50 10.0 89 - - - - 0.0 - - - - - -
09/11/2018 17:00 9.6 90 - - - - 0.0 - - - - - -
09/11/2018 17:10 9.5 89 - - - - 0.0 - - - - - -
09/11/2018 17:20 9.1 90 - - - - 0.0 - - - - - -
09/11/2018 17:30 9.0 91 - - - - 0.0 - - - - - -
09/11/2018 17:40 8.9 91 - - - - 0.0 - - - - - -
09/11/2018 17:50 8.9 92 - - - - 0.0 - - - - - -
09/11/2018 18:00 9.2 92 - - - - 0.0 - - - - - -
09/11/2018 18:10 9.6 89 - - - - 0.0 - - - - - -
09/11/2018 18:20 12.2 67 - - - - 0.0 - - - - - -
09/11/2018 18:30 13.6 57 - - - - 0.0 - - - - - -
09/11/2018 18:40 13.9 57 - - - - 0.0 - - - - - -
09/11/2018 18:50 13.6 59 - - - - 0.0 - - - - - -
09/11/2018 19:00 13.4 62 - - - - 0.0 - - - - - -
09/11/2018 19:10 13.4 62 - - - - 0.0 - - - - - -
09/11/2018 19:20 14.3 57 - - - - 0.0 - - - - - -
09/11/2018 19:30 14.4 58 - - - - 0.0 - - - - - -
09/11/2018 19:40 13.8 62 - - - - 0.0 - - - - - -
09/11/2018 19:50 14.1 60 - - - - 0.0 - - - - - -
09/11/2018 20:00 14.1 62 - - - - 0.0 - - - - - -
09/11/2018 20:10 14.1 61 - - - - 0.0 - - - - - -
09/11/2018 20:20 14.3 61 - - - - 0.0 - - - - - -
09/11/2018 20:30 14.3 61 - - - - 0.0 - - - - - -
09/11/2018 20:40 14.5 61 - - - - 0.0 - - - - - -
09/11/2018 20:50 14.5 61 - - - - 0.0 - - - - - -
09/11/2018 21:00 14.5 62 - - - - 0.0 - - - - - -
09/11/2018 21:10 14.9 60 - - - - 0.0 - - - - - -
09/11/2018 21:20 14.7 63 - - - - 0.0 - - - - - -
09/11/2018 21:30 14.2 67 - - - - 0.0 - - - - - -
09/11/2018 21:40 13.7 72 - - - - 0.0 - - - - - -
09/11/2018 21:50 13.3 76 - - - - 0.0 - - - - - -
09/11/2018 22:00 13.5 74 - - - - 0.0 - - - - - -
09/11/2018 22:10 12.9 80 - - - - 0.0 - - - - - -
09/11/2018 22:20 12.4 85 - - - - 0.0 - - - - - -
09/11/2018 22:30 12.0 89 - - - - 0.1 - - - - - -
09/11/2018 22:40 11.7 92 - - - - 0.0 - - - - - -
09/11/2018 22:50 12.1 88 - - - - 0.0 - - - - - -
09/11/2018 23:00 13.1 80 - - - - 0.1 - - - - - -
09/11/2018 23:10 13.5 77 - - - - 0.0 - - - - - -
09/11/2018 23:20 12.3 87 - - - - 0.0 - - - - - -
09/11/2018 23:30 12.9 80 - - - - 0.0 - - - - - -
09/11/2018 23:40 13.9 67 - - - - 0.0 - - - - - -
09/11/2018 23:50 14.3 64 - - - - 0.0 - - - - - -
Anterior Página 1 de 1 Siguiente

NOTA: Tipo de datos según el color:
   - Valores diarios o 10 minutos correctos
   - Valores diarios calculados a partir de un número de datos 10 minutos menor que 144 y mayor que 120, o de un número de datos semihorarios menor que 48 y mayor que 40 (caso de las estaciones de Riegos de Navarra y del MARM)
   - Valores diez minutos estimados


Contacto        Enlaces        Aviso legal